Disclaimer

Please do not use the information listed here in-flight or in-navigation, as they are not provided to us by the airports but are provided by volunteers, so they might be outdated.

Search


Regions


Airport information page

Radio informations:
Tower (TWR) - 118.7 MHz
Ground (GND) - 121.6 MHz
Automatic Terminal Information Service (ATIS) - 127.2 MHz

Airport informations:
Latitude: 35° 24' 58.00" N
Longitude: 051° 09' 08.00" E
Elevation: 3305 feet - 1007 meters
Operating hours: 24 hour operations
Operating agency: Civil government, landing fees and diplomatic clearance may be required
Timezone: UTC+3:30
Fuel: N/A

Runway information:
11R/29L - 13940 x 148 feet< - >4249 x 45 meters
11L/29R - 13772 x 148 feet< - >4198 x 45 meters

Recent METARs:
OIIE 190000Z 27006KT 6000 NSC 07/04 Q1020
OIIE 190000Z 27006KT 6000 NSC 07/04 Q1020 TEMPO 5000 HZ
OIIE 190100Z 27006KT 6000 NSC 05/03 Q1020

Airport on the map: